createdAt,value
2023-03-29T06:55:08.268Z,9.309320
2023-03-29T06:56:08.483Z,9.308960
2023-03-29T06:57:08.353Z,9.308975
2023-03-29T06:58:08.279Z,9.309004
2023-03-29T06:59:08.251Z,9.308916
2023-03-29T07:00:08.286Z,9.309004
2023-03-29T07:01:08.202Z,9.309044
2023-03-29T07:02:08.746Z,9.308976
2023-03-29T07:03:08.355Z,9.309188
2023-03-29T07:04:08.441Z,9.309191
2023-03-29T07:05:08.304Z,9.308992
2023-03-29T07:06:08.337Z,9.308823
2023-03-29T07:07:08.397Z,9.308783
2023-03-29T07:08:08.490Z,9.308917
2023-03-29T07:09:08.299Z,9.309029
2023-03-29T07:10:08.257Z,9.308979
2023-03-29T07:11:08.259Z,9.308931
2023-03-29T07:12:09.445Z,9.309111
2023-03-29T07:13:08.288Z,9.309162
2023-03-29T07:14:08.139Z,9.309187
2023-03-29T07:15:08.161Z,9.309187
2023-03-29T07:16:08.128Z,9.309174
2023-03-29T07:17:08.283Z,9.309071
2023-03-29T07:18:08.286Z,9.309101
2023-03-29T07:19:08.233Z,9.309259
2023-03-29T07:20:08.224Z,9.309141
2023-03-29T07:21:08.366Z,9.309228
2023-03-29T07:22:08.199Z,9.309253
2023-03-29T07:23:08.279Z,9.309219
2023-03-29T07:24:08.176Z,9.309107
2023-03-29T07:25:08.207Z,9.309151
2023-03-29T07:26:08.434Z,9.309246
2023-03-29T07:27:08.175Z,9.309262
2023-03-29T07:28:08.167Z,9.309195
2023-03-29T07:29:08.327Z,9.309143
2023-03-29T07:30:08.138Z,9.309128
2023-03-29T07:31:08.389Z,9.309192
2023-03-29T07:32:08.069Z,9.309187
2023-03-29T07:33:08.129Z,9.309114
2023-03-29T07:34:08.107Z,9.309216
2023-03-29T07:35:07.993Z,9.309042
2023-03-29T07:36:08.093Z,9.309166
2023-03-29T07:37:07.945Z,9.309151
2023-03-29T07:38:07.989Z,9.309118
2023-03-29T07:39:07.993Z,9.309200
2023-03-29T07:40:08.113Z,9.309175
2023-03-29T07:41:08.243Z,9.309152
2023-03-29T07:42:08.042Z,9.309248
2023-03-29T07:43:08.391Z,9.309229
2023-03-29T07:44:08.061Z,9.309283
2023-03-29T07:45:09.165Z,9.309175
2023-03-29T07:46:08.215Z,9.309278
2023-03-29T07:47:07.978Z,9.309213
2023-03-29T07:48:08.050Z,9.309239
2023-03-29T07:49:08.035Z,9.309213
2023-03-29T07:50:08.200Z,9.309234
2023-03-29T07:51:07.978Z,9.309262
2023-03-29T07:52:07.980Z,9.309266
2023-03-29T07:53:07.877Z,9.309132
2023-03-29T07:54:07.879Z,9.309235
2023-03-29T07:55:07.942Z,9.309183
2023-03-29T07:56:08.111Z,9.309143
2023-03-29T07:57:07.901Z,9.309090
2023-03-29T07:58:07.817Z,9.309040
2023-03-29T07:59:07.973Z,9.309155
2023-03-29T08:00:07.928Z,9.309152
2023-03-29T08:01:08.071Z,9.309211
2023-03-29T08:02:07.914Z,9.309184
2023-03-29T08:03:07.935Z,9.309162
2023-03-29T08:04:08.091Z,9.309163
2023-03-29T08:05:07.977Z,9.309128
2023-03-29T08:06:07.863Z,9.309164
2023-03-29T08:07:07.923Z,9.309144
2023-03-29T08:08:07.970Z,9.309230
2023-03-29T08:09:08.040Z,9.309124
2023-03-29T08:10:08.120Z,9.309140
2023-03-29T08:11:07.918Z,9.309069
2023-03-29T08:12:07.923Z,9.309024
2023-03-29T08:13:07.915Z,9.309135
2023-03-29T08:14:07.785Z,9.309101
2023-03-29T08:15:07.765Z,9.309145
2023-03-29T08:16:08.737Z,9.309079
2023-03-29T08:17:07.759Z,9.309092
2023-03-29T08:18:07.937Z,9.309077
2023-03-29T08:19:07.672Z,9.309129
2023-03-29T08:20:07.789Z,9.309133
2023-03-29T08:21:07.747Z,9.309093
2023-03-29T08:22:08.094Z,9.309127
2023-03-29T08:23:07.837Z,9.309105
2023-03-29T08:24:07.732Z,9.309048
2023-03-29T08:25:07.709Z,9.309021
2023-03-29T08:26:07.755Z,9.308990
2023-03-29T08:27:07.667Z,9.308949
2023-03-29T08:28:07.744Z,9.308994
2023-03-29T08:29:07.862Z,9.309026
2023-03-29T08:30:07.758Z,9.309023
2023-03-29T08:31:08.495Z,9.308960
2023-03-29T08:32:07.575Z,9.309021
2023-03-29T08:33:07.632Z,9.309052
2023-03-29T08:34:07.593Z,9.309052
2023-03-29T08:35:07.571Z,9.309035
2023-03-29T08:36:07.787Z,9.308988
2023-03-29T08:37:07.571Z,9.309024
2023-03-29T08:38:07.534Z,9.309011
2023-03-29T08:39:07.560Z,9.308983
2023-03-29T08:40:07.539Z,9.309010
2023-03-29T08:41:07.603Z,9.308975
2023-03-29T08:42:07.677Z,9.308841
2023-03-29T08:43:07.632Z,9.308898
2023-03-29T08:44:07.645Z,9.308886
2023-03-29T08:45:07.638Z,9.308960
2023-03-29T08:46:07.627Z,9.308910
2023-03-29T08:47:07.525Z,9.308975
2023-03-29T08:48:07.985Z,9.308997
2023-03-29T08:49:07.566Z,9.308999
2023-03-29T08:50:07.580Z,9.309016
2023-03-29T08:51:09.460Z,9.309051
2023-03-29T08:52:08.651Z,9.309045
2023-03-29T08:53:07.599Z,9.309124
2023-03-29T08:54:07.495Z,9.309056
2023-03-29T08:55:07.445Z,9.309109
2023-03-29T08:56:07.827Z,9.309128
2023-03-29T08:57:07.645Z,9.309060
2023-03-29T08:58:07.433Z,9.309267
2023-03-29T08:59:07.428Z,9.309185
2023-03-29T09:00:07.404Z,9.309108
2023-03-29T09:01:07.557Z,9.309029
2023-03-29T09:02:07.804Z,9.309090
2023-03-29T09:03:07.456Z,9.309074
2023-03-29T09:10:48.120Z,9.309072
2023-03-29T09:11:47.994Z,9.309036
2023-03-29T09:12:48.026Z,9.308988
2023-03-29T09:13:48.182Z,9.309031
2023-03-29T09:14:48.046Z,9.308942
2023-03-29T09:15:48.182Z,9.308957
2023-03-29T09:16:48.046Z,9.309003
2023-03-29T09:17:49.609Z,9.309154
2023-03-29T09:18:49.078Z,9.309107
2023-03-29T09:19:49.145Z,9.309070
2023-03-29T09:20:48.014Z,9.309040
2023-03-29T09:21:48.029Z,9.309045
2023-03-29T09:22:48.010Z,9.308980
2023-03-29T09:23:48.402Z,9.309055
2023-03-29T09:24:48.142Z,9.309051
2023-03-29T09:25:53.363Z,9.308914
2023-03-29T09:26:49.973Z,9.308948
2023-03-29T09:27:47.864Z,9.308974
2023-03-29T09:28:47.916Z,9.308972
2023-03-29T09:29:47.890Z,9.309019
2023-03-29T09:30:47.932Z,9.309015
2023-03-29T09:31:47.993Z,9.308978
2023-03-29T09:32:47.950Z,9.309043
2023-03-29T09:33:47.820Z,9.309093
2023-03-29T09:34:47.858Z,9.308982
2023-03-29T09:35:47.944Z,9.308959
2023-03-29T09:36:48.088Z,9.309009
2023-03-29T09:37:47.916Z,9.308969
2023-03-29T09:38:48.049Z,9.309002
2023-03-29T09:39:48.216Z,9.309055
2023-03-29T09:40:47.906Z,9.309007
2023-03-29T09:41:47.968Z,9.309011
2023-03-29T09:42:47.909Z,9.308974
2023-03-29T09:43:48.037Z,9.308978
2023-03-29T09:44:48.199Z,9.308990
2023-03-29T09:45:47.971Z,9.308962
2023-03-29T09:46:47.739Z,9.308949
2023-03-29T09:47:47.867Z,9.308996
2023-03-29T09:48:47.718Z,9.309068
2023-03-29T09:49:47.844Z,9.308979
2023-03-29T09:50:47.835Z,9.308931
2023-03-29T09:51:48.088Z,9.308972
2023-03-29T09:52:47.890Z,9.308953
2023-03-29T09:53:47.947Z,9.308980
2023-03-29T09:54:47.794Z,9.309007
2023-03-29T09:55:49.093Z,9.308870
2023-03-29T09:56:49.089Z,9.308939
2023-03-29T09:57:47.792Z,9.308956
2023-03-29T09:58:48.134Z,9.308958
2023-03-29T09:59:47.804Z,9.308915
2023-03-29T10:00:47.754Z,9.308933
2023-03-29T10:01:47.792Z,9.308992
2023-03-29T10:02:47.956Z,9.308977
2023-03-29T10:03:47.702Z,9.308947
2023-03-29T10:04:47.728Z,9.308884
2023-03-29T10:05:47.611Z,9.308908
2023-03-29T10:06:47.652Z,9.308902
2023-03-29T10:07:47.616Z,9.309020
2023-03-29T10:08:47.612Z,9.308955
2023-03-29T10:09:47.783Z,9.308949
2023-03-29T10:10:47.715Z,9.308963
2023-03-29T10:11:47.698Z,9.308942
2023-03-29T10:12:48.004Z,9.308936
2023-03-29T10:13:47.619Z,9.308937
2023-03-29T10:14:47.861Z,9.308961
2023-03-29T10:15:47.651Z,9.308966
2023-03-29T10:16:48.000Z,9.308924
2023-03-29T10:17:47.633Z,9.308895
2023-03-29T10:18:47.799Z,9.308956
2023-03-29T10:19:47.620Z,9.308855
2023-03-29T10:20:47.651Z,9.308882
2023-03-29T10:21:47.533Z,9.309015
2023-03-29T10:22:47.504Z,9.308891
2023-03-29T10:23:47.618Z,9.308905
2023-03-29T10:24:47.464Z,9.308869
2023-03-29T10:25:47.542Z,9.308930
2023-03-29T10:26:47.539Z,9.308957
2023-03-29T10:27:47.544Z,9.308988
2023-03-29T10:28:47.584Z,9.308904
2023-03-29T10:29:47.626Z,9.308919
2023-03-29T10:30:47.563Z,9.308928
2023-03-29T10:31:47.670Z,9.308962
2023-03-29T10:32:47.572Z,9.308991
2023-03-29T10:33:47.624Z,9.308963
2023-03-29T10:34:47.560Z,9.308947
2023-03-29T10:35:47.620Z,9.308923
2023-03-29T10:36:47.851Z,9.309061
2023-03-29T10:37:47.629Z,9.309057
2023-03-29T10:38:47.617Z,9.308960
2023-03-29T10:39:47.449Z,9.308980
2023-03-29T10:40:47.547Z,9.308982
2023-03-29T10:41:48.596Z,9.309042
2023-03-29T10:42:47.389Z,9.309106
2023-03-29T10:43:47.505Z,9.309122
2023-03-29T10:44:47.417Z,9.309078
2023-03-29T10:45:47.616Z,9.309079
2023-03-29T10:46:47.497Z,9.309076
2023-03-29T10:47:47.486Z,9.309073
2023-03-29T10:48:47.722Z,9.309118
2023-03-29T10:49:47.946Z,9.309174
2023-03-29T10:50:47.436Z,9.309122
2023-03-29T10:51:47.413Z,9.309123
2023-03-29T10:52:47.570Z,9.309088
2023-03-29T10:53:47.305Z,9.309087
2023-03-29T10:54:47.310Z,9.309093
2023-03-29T10:55:47.590Z,9.309151
2023-03-29T10:56:47.392Z,9.309163
2023-03-29T10:57:47.306Z,9.309086
2023-03-29T10:58:47.745Z,9.309069
2023-03-29T10:59:47.379Z,9.309071
2023-03-29T11:00:47.390Z,9.309093
2023-03-29T11:01:47.752Z,9.309074
2023-03-29T11:02:47.468Z,9.309071
2023-03-29T11:03:47.570Z,9.309048
2023-03-29T11:04:47.304Z,9.309056
2023-03-29T11:05:47.340Z,9.309016
2023-03-29T11:06:47.410Z,9.309086
2023-03-29T11:07:47.427Z,9.309102
2023-03-29T11:08:47.328Z,9.309192
2023-03-29T11:09:47.686Z,9.309003
2023-03-29T11:10:47.346Z,9.309020
2023-03-29T11:11:47.202Z,9.309053
2023-03-29T11:12:47.146Z,9.309022
2023-03-29T11:13:47.142Z,9.309058
2023-03-29T11:14:47.354Z,9.309098
2023-03-29T11:15:47.582Z,9.309057
2023-03-29T11:16:47.692Z,9.309069
2023-03-29T11:17:47.445Z,9.309097
2023-03-29T11:18:47.356Z,9.309130
2023-03-29T11:19:47.979Z,9.309023
2023-03-29T11:20:47.633Z,9.309074
2023-03-29T11:21:47.538Z,9.309068
2023-03-29T11:22:47.222Z,9.309155
2023-03-29T11:23:47.391Z,9.309101
2023-03-29T11:24:47.133Z,9.309017
2023-03-29T11:25:47.138Z,9.308998
2023-03-29T11:26:47.087Z,9.309033
2023-03-29T11:27:47.129Z,9.309119
2023-03-29T11:28:47.045Z,9.309142
2023-03-29T11:29:47.050Z,9.309010
2023-03-29T11:30:47.196Z,9.308963
2023-03-29T11:31:47.277Z,9.308984
2023-03-29T11:32:47.295Z,9.309066
2023-03-29T11:33:47.271Z,9.309092
2023-03-29T11:34:47.148Z,9.308942
2023-03-29T11:35:47.226Z,9.308905
2023-03-29T11:36:47.140Z,9.309028
2023-03-29T11:37:47.277Z,9.308985
2023-03-29T11:38:47.124Z,9.309002
2023-03-29T11:39:47.454Z,9.309117
2023-03-29T11:40:47.255Z,9.309114
2023-03-29T11:41:47.526Z,9.309036
2023-03-29T11:42:47.173Z,9.308923
2023-03-29T11:43:46.984Z,9.308961
2023-03-29T11:44:47.032Z,9.308969
2023-03-29T11:45:47.285Z,9.308989
2023-03-29T11:46:47.067Z,9.309032
2023-03-29T11:47:47.055Z,9.309066
2023-03-29T11:48:46.920Z,9.309088
2023-03-29T11:49:46.920Z,9.308910
2023-03-29T11:50:46.959Z,9.308964
2023-03-29T11:51:46.981Z,9.308985
2023-03-29T11:52:47.029Z,9.308901
2023-03-29T11:53:46.991Z,9.309089
2023-03-29T11:54:46.914Z,9.309022
2023-03-29T11:55:46.943Z,9.309023
2023-03-29T11:56:47.318Z,9.309153
2023-03-29T11:57:47.026Z,9.309000
2023-03-29T11:58:46.897Z,9.308975
2023-03-29T11:59:46.990Z,9.309026
2023-03-29T12:00:46.957Z,9.308985
2023-03-29T12:01:47.037Z,9.309011
2023-03-29T12:02:47.090Z,9.309022
2023-03-29T12:03:47.505Z,9.309044
2023-03-29T12:04:46.827Z,9.309056
2023-03-29T12:05:46.733Z,9.309096
2023-03-29T12:06:46.903Z,9.309095
2023-03-29T12:07:46.825Z,9.309117
2023-03-29T12:08:47.241Z,9.309061
2023-03-29T12:09:47.001Z,9.309033
2023-03-29T12:10:46.805Z,9.309065
2023-03-29T12:11:47.327Z,9.309039
2023-03-29T12:12:46.849Z,9.309173
2023-03-29T12:13:46.905Z,9.309145
2023-03-29T12:14:46.881Z,9.309124
2023-03-29T12:15:46.791Z,9.309100
2023-03-29T12:16:46.969Z,9.309126
2023-03-29T12:17:46.899Z,9.309114
2023-03-29T12:18:46.713Z,9.309136
2023-03-29T12:19:46.804Z,9.309136
2023-03-29T12:20:46.850Z,9.309071
2023-03-29T12:21:46.677Z,9.309149
2023-03-29T12:22:46.690Z,9.309167
2023-03-29T12:23:46.634Z,9.309122
2023-03-29T12:24:46.799Z,9.309143
2023-03-29T12:25:46.725Z,9.309146
2023-03-29T12:26:46.880Z,9.309104
2023-03-29T12:27:46.737Z,9.309118
2023-03-29T12:28:46.830Z,9.309119
2023-03-29T12:29:46.770Z,9.309110
2023-03-29T12:30:47.025Z,9.309120
2023-03-29T12:31:46.758Z,9.309123
2023-03-29T12:32:46.863Z,9.309072
2023-03-29T12:33:47.013Z,9.309146
2023-03-29T12:34:46.944Z,9.309214
2023-03-29T12:35:46.784Z,9.309122
2023-03-29T12:36:46.581Z,9.309113
2023-03-29T12:37:46.588Z,9.309168
2023-03-29T12:38:46.985Z,9.309165
2023-03-29T12:39:46.850Z,9.309134
2023-03-29T12:40:46.730Z,9.309156
2023-03-29T12:41:46.709Z,9.309149
2023-03-29T12:42:46.767Z,9.309168
2023-03-29T12:43:46.649Z,9.309174
2023-03-29T12:44:46.610Z,9.309184
2023-03-29T12:45:47.987Z,9.309117
2023-03-29T12:46:47.419Z,9.309157
2023-03-29T12:47:46.840Z,9.309151
2023-03-29T12:48:46.657Z,9.309096
2023-03-29T12:49:46.629Z,9.309112
2023-03-29T12:50:47.074Z,9.309171
2023-03-29T12:51:46.480Z,9.309188
2023-03-29T12:52:46.510Z,9.309175
2023-03-29T12:53:46.707Z,9.309150
2023-03-29T12:54:46.455Z,9.309154
2023-03-29T12:55:46.470Z,9.309104
2023-03-29T12:56:46.776Z,9.309140
2023-03-29T12:57:46.498Z,9.309118
2023-03-29T12:58:46.784Z,9.309085
2023-03-29T12:59:46.514Z,9.309037
2023-03-29T13:00:47.131Z,9.309042
2023-03-29T13:01:47.389Z,9.309072
2023-03-29T13:02:46.435Z,9.309084
2023-03-29T13:03:47.879Z,9.309116
2023-03-29T13:04:46.699Z,9.309044
2023-03-29T13:05:46.542Z,9.309050
2023-03-29T13:06:46.457Z,9.309070
2023-03-29T13:07:46.645Z,9.308982
2023-03-29T13:08:46.655Z,9.308934
2023-03-29T13:09:46.493Z,9.308990
2023-03-29T13:10:46.370Z,9.309066
2023-03-29T13:11:46.348Z,9.309083
2023-03-29T13:12:47.464Z,9.309006
2023-03-29T13:13:46.278Z,9.309003
2023-03-29T13:14:46.512Z,9.309035
2023-03-29T13:15:46.491Z,9.309029
2023-03-29T13:16:46.513Z,9.309107
2023-03-29T13:17:46.429Z,9.309079
2023-03-29T13:18:46.547Z,9.309073
2023-03-29T13:19:46.417Z,9.309076
2023-03-29T13:20:46.421Z,9.309022
2023-03-29T13:21:46.518Z,9.309040
2023-03-29T13:22:46.374Z,9.309069
2023-03-29T13:23:46.266Z,9.309068
2023-03-29T13:24:46.248Z,9.309093
2023-03-29T13:25:46.748Z,9.309048
2023-03-29T13:26:46.308Z,9.309114
2023-03-29T13:27:46.239Z,9.309112
2023-03-29T13:28:46.226Z,9.309113
2023-03-29T13:29:46.207Z,9.309125
2023-03-29T13:30:46.587Z,9.309189
2023-03-29T13:31:46.319Z,9.309075
2023-03-29T13:32:46.629Z,9.309085
2023-03-29T13:33:46.423Z,9.308989
2023-03-29T13:34:46.243Z,9.309018
2023-03-29T13:35:46.297Z,9.308986
2023-03-29T13:36:46.299Z,9.308999
2023-03-29T13:37:46.315Z,9.308994
2023-03-29T13:38:46.285Z,9.309020
2023-03-29T13:39:46.608Z,9.308993
2023-03-29T13:40:46.208Z,9.309022
2023-03-29T13:41:46.553Z,9.309020
2023-03-29T13:42:47.228Z,9.309074
2023-03-29T13:43:47.253Z,9.309034
2023-03-29T13:44:46.139Z,9.309015
2023-03-29T13:45:46.187Z,9.308996
2023-03-29T13:46:46.317Z,9.308982
2023-03-29T13:47:58.333Z,9.308950
2023-03-29T13:48:48.092Z,9.309009
2023-03-29T13:49:46.140Z,9.309034
2023-03-29T13:50:46.131Z,9.309040
2023-03-29T13:51:46.158Z,9.309136
2023-03-29T13:52:46.475Z,9.309053
2023-03-29T13:53:46.185Z,9.309073
